createdAt,value
2022-08-30T00:01:36.500Z,3.23
2022-08-30T00:04:41.413Z,4.50
2022-08-30T00:07:46.224Z,3.30
2022-08-30T00:10:54.633Z,3.33
2022-08-30T00:13:59.679Z,4.78
2022-08-30T00:17:04.389Z,4.22
2022-08-30T00:20:13.796Z,3.57
2022-08-30T00:23:20.038Z,8.40
2022-08-30T00:26:24.730Z,5.35
2022-08-30T00:29:29.431Z,5.07
2022-08-30T00:32:34.168Z,3.22
2022-08-30T00:35:40.964Z,36.67
2022-08-30T00:38:45.432Z,13.23
2022-08-30T00:41:51.597Z,6.57
2022-08-30T00:44:56.180Z,3.28
2022-08-30T00:48:01.403Z,4.07
2022-08-30T00:51:10.348Z,13.25
2022-08-30T00:54:16.008Z,5.00
2022-08-30T00:57:21.224Z,5.72
2022-08-30T01:00:25.897Z,5.35
2022-08-30T01:03:31.505Z,5.73
2022-08-30T01:06:37.272Z,6.35
2022-08-30T01:09:41.949Z,9.88
2022-08-30T01:12:47.421Z,4.05
2022-08-30T01:22:30.603Z,10.50
2022-08-30T01:25:38.156Z,9.00
2022-08-30T01:28:43.143Z,3.50
2022-08-30T01:31:47.544Z,5.13
2022-08-30T01:34:52.564Z,5.90
2022-08-30T01:37:57.506Z,8.23
2022-08-30T01:41:11.727Z,7.82
2022-08-30T01:44:16.741Z,8.60
2022-08-30T01:47:22.314Z,6.15
2022-08-30T01:50:26.959Z,3.88
2022-08-30T01:53:31.924Z,8.90
2022-08-30T01:56:36.851Z,3.42
2022-08-30T01:59:44.275Z,2.65
2022-08-30T02:02:49.786Z,7.05
2022-08-30T02:05:54.294Z,3.42
2022-08-30T02:08:59.549Z,2.88
2022-08-30T02:12:05.957Z,2.92
2022-08-30T02:15:11.270Z,5.57
2022-08-30T02:21:20.565Z,3.38
2022-08-30T02:24:25.485Z,7.55
2022-08-30T02:27:30.127Z,6.15
2022-08-30T02:30:35.020Z,3.28
2022-08-30T02:33:40.463Z,4.90
2022-08-30T02:36:46.695Z,4.28
2022-08-30T02:39:51.287Z,6.07
2022-08-30T02:42:55.961Z,2.88
2022-08-30T02:46:02.145Z,2.33
2022-08-30T02:49:30.363Z,5.07
2022-08-30T02:52:31.837Z,14.15
2022-08-30T02:55:36.591Z,3.78
2022-08-30T02:58:43.390Z,4.57
2022-08-30T03:01:47.884Z,5.10
2022-08-30T03:04:52.111Z,6.88
2022-08-30T03:07:56.647Z,12.60
2022-08-30T03:11:03.567Z,4.00
2022-08-30T03:14:08.255Z,3.70
2022-08-30T03:17:15.561Z,3.28
2022-08-30T03:20:21.055Z,3.88
2022-08-30T03:23:25.797Z,3.45
2022-08-30T03:26:31.844Z,4.65
2022-08-30T03:29:37.214Z,7.00
2022-08-30T03:32:43.130Z,5.57
2022-08-30T03:35:47.842Z,8.13
2022-08-30T03:38:52.367Z,8.20
2022-08-30T03:41:57.438Z,6.70
2022-08-30T03:45:06.795Z,5.05
2022-08-30T03:48:11.720Z,3.50
2022-08-30T03:51:16.624Z,7.30
2022-08-30T03:54:23.422Z,5.70
2022-08-30T03:57:29.931Z,5.70
2022-08-30T04:00:36.196Z,4.40
2022-08-30T04:03:40.833Z,9.05
2022-08-30T04:06:45.691Z,12.50
2022-08-30T04:09:50.640Z,3.65
2022-08-30T04:12:55.259Z,2.30
2022-08-30T04:16:00.086Z,3.17
2022-08-30T04:19:05.251Z,3.13
2022-08-30T04:22:10.003Z,3.70
2022-08-30T04:25:15.998Z,3.70
2022-08-30T04:28:20.720Z,3.60
2022-08-30T04:31:25.345Z,7.43
2022-08-30T04:34:30.048Z,3.65
2022-08-30T04:37:34.501Z,2.63
2022-08-30T04:40:39.462Z,4.95
2022-08-30T04:43:47.629Z,2.33
2022-08-30T04:46:52.206Z,3.53
2022-08-30T04:49:56.717Z,3.60
2022-08-30T04:53:01.341Z,2.30
2022-08-30T04:56:17.514Z,7.35
2022-08-30T04:59:22.971Z,5.22
2022-08-30T05:02:27.655Z,5.63
2022-08-30T05:05:41.234Z,5.22
2022-08-30T05:08:47.047Z,7.90
2022-08-30T05:11:51.593Z,2.88
2022-08-30T05:14:58.381Z,7.20
2022-08-30T05:18:03.850Z,8.23
2022-08-30T05:21:20.616Z,4.07
2022-08-30T05:24:25.171Z,3.25
2022-08-30T05:27:30.109Z,6.25
2022-08-30T05:30:36.693Z,2.97
2022-08-30T05:33:41.425Z,4.80
2022-08-30T05:36:45.909Z,3.45
2022-08-30T05:39:51.650Z,4.20
2022-08-30T05:42:56.638Z,5.50
2022-08-30T05:46:07.706Z,13.05
2022-08-30T05:49:12.409Z,5.05
2022-08-30T05:52:19.055Z,5.20
2022-08-30T05:55:24.089Z,6.00
2022-08-30T05:58:28.892Z,14.98
2022-08-30T06:01:38.759Z,3.55
2022-08-30T06:04:43.298Z,5.00
2022-08-30T06:07:48.271Z,8.52
2022-08-30T06:10:53.008Z,3.70
2022-08-30T06:13:57.954Z,5.00
2022-08-30T06:17:02.663Z,5.43
2022-08-30T06:20:08.397Z,2.92
2022-08-30T06:23:12.944Z,5.70
2022-08-30T06:26:18.385Z,3.97
2022-08-30T06:29:23.344Z,6.78
2022-08-30T06:32:28.180Z,5.80
2022-08-30T06:35:38.278Z,2.75
2022-08-30T06:38:53.868Z,5.35
2022-08-30T06:41:58.516Z,7.03
2022-08-30T06:45:11.288Z,3.03
2022-08-30T06:48:16.399Z,4.43
2022-08-30T06:51:23.388Z,6.13
2022-08-30T06:54:28.262Z,5.78
2022-08-30T06:57:32.809Z,3.55
2022-08-30T07:00:37.534Z,4.80
2022-08-30T07:06:47.053Z,4.05
2022-08-30T07:09:51.942Z,2.35
2022-08-30T07:12:56.434Z,3.20
2022-08-30T07:16:01.326Z,4.28
2022-08-30T07:19:07.587Z,2.70
2022-08-30T07:22:12.279Z,5.10
2022-08-30T07:25:19.863Z,2.08
2022-08-30T07:28:24.881Z,6.80
2022-08-30T07:31:30.716Z,5.18
2022-08-30T07:34:35.719Z,2.28
2022-08-30T07:37:40.200Z,5.95
2022-08-30T07:40:45.225Z,4.55
2022-08-30T07:43:49.986Z,4.10
2022-08-30T07:46:54.794Z,4.30
2022-08-30T07:50:01.840Z,3.35
2022-08-30T07:53:10.682Z,2.15
2022-08-30T07:56:16.916Z,4.35
2022-08-30T07:59:21.675Z,5.47
2022-08-30T08:02:26.391Z,4.97
2022-08-30T08:05:31.272Z,4.93
2022-08-30T08:08:36.472Z,5.70
2022-08-30T08:14:47.074Z,4.90
2022-08-30T08:17:51.627Z,5.65
2022-08-30T08:21:00.044Z,2.97
2022-08-30T08:24:05.942Z,5.05
2022-08-30T08:27:13.347Z,7.60
2022-08-30T08:30:22.731Z,9.05
2022-08-30T08:33:27.704Z,4.40
2022-08-30T08:36:34.025Z,8.00
2022-08-30T08:39:38.546Z,12.38
2022-08-30T08:42:43.230Z,13.63
2022-08-30T08:46:27.488Z,16.33
2022-08-30T08:49:36.136Z,10.30
2022-08-30T08:53:16.411Z,15.70
2022-08-30T08:56:29.902Z,14.25
2022-08-30T08:59:36.722Z,11.38
2022-08-30T09:02:56.008Z,24.92
2022-08-30T09:06:05.318Z,22.40
2022-08-30T09:09:10.467Z,20.20
2022-08-30T09:12:15.743Z,25.75
2022-08-30T09:15:27.970Z,14.68
2022-08-30T09:18:54.687Z,19.40
2022-08-30T09:22:10.614Z,23.13
2022-08-30T09:28:32.835Z,12.10
2022-08-30T09:32:01.318Z,8.30
2022-08-30T09:35:22.143Z,13.60
2022-08-30T09:38:35.080Z,13.45
2022-08-30T09:41:43.375Z,12.00
2022-08-30T09:44:48.132Z,12.40
2022-08-30T09:47:52.708Z,10.77
2022-08-30T09:51:22.343Z,20.75
2022-08-30T09:55:15.766Z,26.73
2022-08-30T09:58:46.263Z,26.38
2022-08-30T10:01:57.585Z,33.33
2022-08-30T10:05:13.457Z,28.90
2022-08-30T10:08:21.019Z,27.77
2022-08-30T10:11:40.071Z,44.72
2022-08-30T10:15:02.971Z,13.43
2022-08-30T10:18:19.704Z,16.25
2022-08-30T10:21:39.547Z,22.98
2022-08-30T10:24:51.742Z,16.85
2022-08-30T10:27:59.913Z,18.92
2022-08-30T10:31:14.971Z,10.68
2022-08-30T10:34:37.402Z,13.40
2022-08-30T10:38:07.690Z,10.40
2022-08-30T10:41:21.170Z,7.22
2022-08-30T10:44:32.934Z,7.05
2022-08-30T10:48:07.011Z,7.90
2022-08-30T10:51:37.540Z,8.35
2022-08-30T10:55:01.295Z,12.38
2022-08-30T10:58:08.285Z,7.38
2022-08-30T11:01:37.023Z,10.55
2022-08-30T11:05:19.607Z,10.38
2022-08-30T11:08:41.649Z,6.90
2022-08-30T11:12:11.974Z,7.32
2022-08-30T11:15:25.024Z,8.00
2022-08-30T11:18:51.215Z,5.95
2022-08-30T11:22:28.609Z,7.93
2022-08-30T11:25:57.703Z,6.85
2022-08-30T11:29:04.551Z,12.02
2022-08-30T11:32:14.028Z,12.65
2022-08-30T11:35:50.697Z,13.98
2022-08-30T11:38:55.765Z,23.52
2022-08-30T11:45:53.240Z,7.47
2022-08-30T11:49:13.998Z,4.68
2022-08-30T11:52:42.300Z,6.80
2022-08-30T11:56:17.361Z,10.52
2022-08-30T11:59:25.215Z,6.53
2022-08-30T12:02:49.910Z,16.00
2022-08-30T12:05:58.928Z,9.80
2022-08-30T12:09:08.245Z,9.05
2022-08-30T12:12:48.421Z,6.85
2022-08-30T12:16:01.970Z,7.88
2022-08-30T12:19:21.519Z,9.95
2022-08-30T12:22:28.018Z,10.60
2022-08-30T12:25:35.393Z,6.43
2022-08-30T12:28:42.150Z,10.30
2022-08-30T12:31:53.623Z,9.93
2022-08-30T12:35:01.487Z,5.90
2022-08-30T12:38:17.295Z,11.18
2022-08-30T12:41:23.492Z,6.20
2022-08-30T12:44:30.443Z,9.18
2022-08-30T12:47:59.045Z,9.15
2022-08-30T12:51:05.370Z,14.43
2022-08-30T12:54:23.208Z,8.57
2022-08-30T12:58:00.667Z,8.35
2022-08-30T13:01:37.996Z,6.70
2022-08-30T13:04:42.869Z,8.23
2022-08-30T13:07:47.828Z,4.97
2022-08-30T13:10:58.546Z,3.88
2022-08-30T13:14:32.328Z,6.80
2022-08-30T13:17:37.614Z,3.53
2022-08-30T13:20:42.056Z,7.80
2022-08-30T13:23:46.733Z,5.13
2022-08-30T13:26:52.260Z,9.27
2022-08-30T13:29:58.476Z,6.07
2022-08-30T13:33:03.401Z,10.48
2022-08-30T13:36:08.592Z,10.25
2022-08-30T13:42:33.430Z,10.30
2022-08-30T13:45:42.634Z,10.52
2022-08-30T13:48:48.408Z,12.77
2022-08-30T13:52:19.088Z,11.45
2022-08-30T13:55:21.699Z,7.07
2022-08-30T13:58:26.607Z,7.50
2022-08-30T14:02:07.520Z,6.65
2022-08-30T14:04:59.774Z,9.55
2022-08-30T14:08:44.177Z,7.07
2022-08-30T14:11:36.387Z,8.77
2022-08-30T14:14:43.317Z,11.63
2022-08-30T14:17:48.504Z,10.68
2022-08-30T14:20:53.241Z,14.70
2022-08-30T14:23:59.749Z,7.13
2022-08-30T14:27:04.859Z,8.38
2022-08-30T14:30:10.534Z,6.43
2022-08-30T14:33:16.531Z,5.35
2022-08-30T14:36:21.206Z,5.85
2022-08-30T14:39:27.079Z,8.05
2022-08-30T14:42:32.612Z,6.40
2022-08-30T14:45:39.839Z,15.63
2022-08-30T14:48:44.714Z,9.38
2022-08-30T14:51:52.827Z,8.90
2022-08-30T14:55:03.743Z,9.00
2022-08-30T14:58:12.178Z,4.82
2022-08-30T15:01:16.858Z,11.20
2022-08-30T15:04:22.310Z,6.35
2022-08-30T15:07:26.881Z,9.43
2022-08-30T15:10:31.743Z,5.18
2022-08-30T15:13:37.762Z,7.38
2022-08-30T15:16:42.916Z,7.00
2022-08-30T15:19:49.365Z,9.38
2022-08-30T15:25:59.587Z,6.88
2022-08-30T15:29:04.774Z,5.32
2022-08-30T15:32:09.273Z,7.70
2022-08-30T15:35:13.945Z,6.47
2022-08-30T15:38:19.358Z,6.82
2022-08-30T15:41:26.899Z,4.88
2022-08-30T15:44:34.266Z,7.45
2022-08-30T15:47:39.332Z,6.63
2022-08-30T15:50:45.084Z,5.22
2022-08-30T15:53:50.213Z,10.60
2022-08-30T15:57:00.018Z,15.70
2022-08-30T16:00:07.577Z,8.77
2022-08-30T16:03:14.918Z,12.25
2022-08-30T16:06:22.086Z,5.47
2022-08-30T16:09:32.337Z,6.32
2022-08-30T16:12:37.456Z,6.00
2022-08-30T16:15:42.367Z,4.45
2022-08-30T16:18:46.978Z,4.88
2022-08-30T16:21:59.724Z,5.90
2022-08-30T16:25:06.992Z,5.18
2022-08-30T16:28:11.531Z,6.10
2022-08-30T16:31:18.202Z,7.80
2022-08-30T16:34:23.225Z,3.28
2022-08-30T16:37:30.959Z,4.63
2022-08-30T16:40:36.461Z,8.07
2022-08-30T16:43:41.889Z,7.55
2022-08-30T16:46:53.223Z,7.90
2022-08-30T16:50:01.306Z,3.80
2022-08-30T16:53:08.298Z,5.70
2022-08-30T16:56:20.509Z,8.07
2022-08-30T16:59:25.944Z,4.32
2022-08-30T17:05:40.909Z,6.30
2022-08-30T17:08:46.796Z,5.57
2022-08-30T17:14:56.864Z,12.18
2022-08-30T17:18:01.771Z,9.75
2022-08-30T17:21:07.090Z,8.05
2022-08-30T17:24:12.200Z,11.23
2022-08-30T17:27:16.901Z,12.70
2022-08-30T17:30:21.689Z,12.60
2022-08-30T17:33:26.600Z,11.65
2022-08-30T17:36:31.019Z,7.67
2022-08-30T17:39:35.955Z,12.50
2022-08-30T17:42:41.382Z,15.50
2022-08-30T17:45:47.564Z,17.02
2022-08-30T17:48:57.800Z,8.03
2022-08-30T17:52:06.407Z,8.45
2022-08-30T17:55:11.874Z,10.23
2022-08-30T18:01:22.997Z,19.13
2022-08-30T18:04:29.062Z,8.38
2022-08-30T18:07:34.174Z,6.18
2022-08-30T18:10:38.752Z,4.85
2022-08-30T18:13:43.346Z,4.53
2022-08-30T18:16:53.812Z,19.10
2022-08-30T18:19:59.560Z,7.97
2022-08-30T18:23:07.382Z,13.82
2022-08-30T18:26:14.580Z,13.68
2022-08-30T18:29:30.203Z,7.80
2022-08-30T18:32:38.344Z,8.70
2022-08-30T18:35:48.225Z,11.82
2022-08-30T18:38:53.305Z,11.18
2022-08-30T18:41:58.147Z,25.87
2022-08-30T18:45:14.588Z,7.20
2022-08-30T18:48:20.285Z,12.32
2022-08-30T18:51:25.070Z,6.10
2022-08-30T18:54:30.606Z,6.77
2022-08-30T18:57:35.261Z,10.90
2022-08-30T19:00:40.368Z,15.10
2022-08-30T19:03:45.308Z,8.63
2022-08-30T19:06:50.831Z,11.43
2022-08-30T19:13:04.372Z,11.77
2022-08-30T19:16:12.024Z,9.20
2022-08-30T19:19:17.975Z,15.20
2022-08-30T19:22:27.424Z,13.07
2022-08-30T19:25:35.245Z,10.90
2022-08-30T19:28:42.678Z,13.47
2022-08-30T19:31:47.242Z,15.10
2022-08-30T19:34:51.741Z,9.20
2022-08-30T19:37:58.143Z,13.40
2022-08-30T19:41:03.393Z,7.63
2022-08-30T19:44:08.631Z,9.77
2022-08-30T19:47:40.091Z,9.40
2022-08-30T19:50:54.805Z,5.60
2022-08-30T19:53:59.459Z,6.82
2022-08-30T19:57:04.805Z,8.00
2022-08-30T20:00:12.812Z,8.18
2022-08-30T20:03:21.644Z,7.97
2022-08-30T20:06:26.099Z,15.05
2022-08-30T20:09:30.715Z,18.02
2022-08-30T20:12:37.027Z,15.87
2022-08-30T20:15:42.523Z,11.88
2022-08-30T20:18:49.758Z,15.57
2022-08-30T20:21:54.437Z,8.55
2022-08-30T20:25:03.764Z,14.65
2022-08-30T20:28:15.645Z,7.68
2022-08-30T20:31:20.729Z,4.75
2022-08-30T20:34:28.331Z,12.48
2022-08-30T20:37:34.080Z,6.78
2022-08-30T20:40:40.809Z,5.05
2022-08-30T20:43:46.493Z,9.98
2022-08-30T20:49:56.292Z,13.50
2022-08-30T20:53:01.313Z,10.10
2022-08-30T20:56:06.651Z,10.13
2022-08-30T20:59:11.359Z,20.38
2022-08-30T21:02:16.175Z,18.23
2022-08-30T21:05:20.808Z,15.40
2022-08-30T21:08:26.215Z,12.15
2022-08-30T21:11:30.774Z,14.45
2022-08-30T21:14:35.470Z,16.73
2022-08-30T21:17:40.204Z,18.70
2022-08-30T21:20:47.050Z,25.92
2022-08-30T21:23:57.930Z,22.50
2022-08-30T21:27:02.693Z,18.85
2022-08-30T21:30:07.940Z,18.30
2022-08-30T21:33:12.527Z,32.40
2022-08-30T21:36:36.993Z,11.10
2022-08-30T21:39:41.597Z,8.82
2022-08-30T21:42:48.644Z,12.70
2022-08-30T21:45:54.336Z,8.77
2022-08-30T21:49:02.243Z,5.50
2022-08-30T21:52:06.888Z,6.25
2022-08-30T21:55:11.954Z,4.63
2022-08-30T21:58:17.009Z,5.88
2022-08-30T22:01:26.951Z,4.03
2022-08-30T22:04:31.642Z,5.43
2022-08-30T22:07:38.206Z,5.70
2022-08-30T22:10:45.576Z,4.50
2022-08-30T22:13:52.747Z,4.30
2022-08-30T22:16:57.544Z,9.38
2022-08-30T22:20:02.129Z,9.43
2022-08-30T22:23:07.311Z,7.88
2022-08-30T22:26:14.620Z,9.40
2022-08-30T22:29:19.248Z,3.40
2022-08-30T22:32:23.963Z,5.57
2022-08-30T22:35:28.698Z,3.22
2022-08-30T22:38:33.236Z,5.68
2022-08-30T22:41:38.820Z,8.17
2022-08-30T22:44:43.278Z,7.38
2022-08-30T22:47:48.410Z,4.37
2022-08-30T22:50:53.364Z,9.95
2022-08-30T22:53:57.907Z,4.85
2022-08-30T22:57:04.468Z,4.37
2022-08-30T23:00:20.262Z,3.38
2022-08-30T23:06:30.117Z,6.30
2022-08-30T23:09:34.913Z,3.78
2022-08-30T23:12:40.249Z,10.32
2022-08-30T23:15:44.685Z,4.78
2022-08-30T23:18:49.903Z,3.23
2022-08-30T23:21:54.276Z,3.70
2022-08-30T23:25:18.183Z,5.72
2022-08-30T23:28:41.352Z,7.43
2022-08-30T23:32:04.401Z,3.22
2022-08-30T23:35:30.549Z,5.82
2022-08-30T23:42:15.674Z,4.43
2022-08-30T23:45:38.548Z,7.32
2022-08-30T23:49:01.342Z,12.60
2022-08-30T23:52:24.469Z,6.00
2022-08-30T23:55:47.666Z,4.38
2022-08-30T23:59:10.543Z,4.55
